Time;durP1;ratioP1;P1;durP2;ratioP2;P2;SDS_P1;SDS_P2;PMS_P1;PMS_P2;Temp;Humidity;BMP_temperature;BMP_pressure;BME280_temperature;BME280_humidity;BME280_pressure;Samples;Min_cycle;Max_cycle;Signal;HPM_P1;HPM_P2
2023/05/25 16:11:51;;;;;;;76.70;8.75;;;;;;;;;;4991913;28;20434;-57
2023/05/25 16:14:16;;;;;;;100.97;12.25;;;;;;;;;;4979800;28;20022;-58
2023/05/25 16:16:41;;;;;;;62.45;7.78;;;;;;;;;;4992827;28;20065;-57
2023/05/25 16:19:07;;;;;;;89.83;10.87;;;;;;;;;;4998673;28;20661;-57
2023/05/25 16:21:32;;;;;;;53.53;7.60;;;;;;;;;;5000831;28;20029;-56
2023/05/25 16:23:57;;;;;;;69.93;9.07;;;;;;;;;;5002282;28;20280;-57
2023/05/25 16:26:22;;;;;;;78.50;9.57;;;;;;;;;;4998792;28;20288;-58
2023/05/25 16:28:48;;;;;;;60.83;7.90;;;;;;;;;;5000657;28;20330;-58
2023/05/25 16:31:14;;;;;;;84.23;10.63;;;;;;;;;;4999748;28;20324;-58
2023/05/25 16:33:40;;;;;;;59.60;7.78;;;;;;;;;;4997635;28;20025;-59
2023/05/25 16:36:06;;;;;;;58.20;8.00;;;;;;;;;;4997645;28;20042;-60
2023/05/25 16:38:31;;;;;;;59.80;7.85;;;;;;;;;;4999135;28;20076;-59
2023/05/25 16:40:56;;;;;;;55.97;7.67;;;;;;;;;;4997591;28;20030;-59
2023/05/25 16:43:23;;;;;;;90.57;11.23;;;;;;;;;;4999419;28;20079;-59
2023/05/25 16:45:49;;;;;;;53.45;7.50;;;;;;;;;;4999487;28;20689;-58
2023/05/25 16:48:14;;;;;;;93.35;10.82;;;;;;;;;;4998239;28;20909;-58
2023/05/25 16:50:39;;;;;;;63.77;8.53;;;;;;;;;;4997689;28;20068;-59
2023/05/25 16:53:05;;;;;;;77.03;9.13;;;;;;;;;;4999863;28;20277;-58
2023/05/25 16:55:32;;;;;;;77.70;9.68;;;;;;;;;;4998442;28;20041;-57
2023/05/25 16:57:57;;;;;;;51.72;7.55;;;;;;;;;;4999638;28;20042;-57
2023/05/25 17:00:22;;;;;;;101.37;11.57;;;;;;;;;;4996969;28;20030;-59
2023/05/25 17:02:48;;;;;;;54.17;7.22;;;;;;;;;;5000665;28;20307;-60
2023/05/25 17:05:13;;;;;;;105.03;12.03;;;;;;;;;;4998803;28;20732;-59
2023/05/25 17:07:39;;;;;;;63.67;8.40;;;;;;;;;;4999369;28;20010;-60
2023/05/25 17:10:05;;;;;;;55.75;7.78;;;;;;;;;;4999266;28;20018;-59
2023/05/25 17:12:31;;;;;;;55.35;7.57;;;;;;;;;;4997514;28;20018;-57
2023/05/25 17:14:56;;;;;;;68.83;8.63;;;;;;;;;;4999790;28;20741;-59
2023/05/25 17:17:21;;;;;;;95.97;10.67;;;;;;;;;;4997952;28;20029;-59
2023/05/25 17:19:46;;;;;;;63.05;8.10;;;;;;;;;;4998294;28;20261;-57
2023/05/25 17:22:12;;;;;;;86.22;10.70;;;;;;;;;;4991201;28;20165;-57
2023/05/25 17:24:37;;;;;;;50.93;7.00;;;;;;;;;;4987195;28;20022;-58
2023/05/25 17:27:02;;;;;;;72.07;8.77;;;;;;;;;;4984934;28;20048;-56
2023/05/25 17:29:28;;;;;;;61.20;8.60;;;;;;;;;;4984171;28;20682;-57
2023/05/25 17:31:53;;;;;;;73.15;9.18;;;;;;;;;;4983799;28;20042;-56
2023/05/25 17:34:18;;;;;;;105.17;12.00;;;;;;;;;;4983413;28;20100;-56
2023/05/25 17:36:43;;;;;;;61.58;8.50;;;;;;;;;;4985025;28;20309;-56
2023/05/25 17:39:09;;;;;;;77.55;9.80;;;;;;;;;;4982415;28;20025;-55
2023/05/25 17:41:34;;;;;;;53.57;7.83;;;;;;;;;;4984949;28;20049;-57
2023/05/25 17:43:59;;;;;;;67.32;9.13;;;;;;;;;;4986245;28;20026;-58
2023/05/25 17:46:25;;;;;;;104.60;12.20;;;;;;;;;;4982927;28;20539;-59
2023/05/25 17:48:50;;;;;;;58.22;8.52;;;;;;;;;;4985429;28;20060;-57
2023/05/25 17:51:15;;;;;;;100.27;11.60;;;;;;;;;;4983183;28;21013;-59
2023/05/25 17:53:41;;;;;;;63.88;8.77;;;;;;;;;;4986333;28;20297;-58
2023/05/25 17:56:07;;;;;;;72.63;9.50;;;;;;;;;;4983395;28;20030;-57
2023/05/25 17:58:32;;;;;;;70.63;9.65;;;;;;;;;;4983971;28;20030;-58
2023/05/25 18:00:57;;;;;;;72.57;9.47;;;;;;;;;;4985178;28;20049;-59
2023/05/25 18:03:24;;;;;;;98.37;12.20;;;;;;;;;;4984121;28;20269;-58
2023/05/25 18:05:49;;;;;;;75.85;9.93;;;;;;;;;;4984392;28;20570;-57
2023/05/25 18:08:15;;;;;;;98.07;12.32;;;;;;;;;;4984197;28;20830;-56
2023/05/25 18:10:40;;;;;;;72.38;9.73;;;;;;;;;;4982795;28;20124;-60
2023/05/25 18:13:05;;;;;;;64.32;9.27;;;;;;;;;;4984640;28;20192;-59
2023/05/25 18:15:31;;;;;;;72.18;9.80;;;;;;;;;;4982351;28;20154;-57
2023/05/25 18:17:56;;;;;;;72.27;9.70;;;;;;;;;;4984028;28;20023;-59
2023/05/25 18:20:21;;;;;;;106.35;12.93;;;;;;;;;;4983990;28;20356;-56
2023/05/25 18:22:46;;;;;;;60.65;9.18;;;;;;;;;;4983698;28;20041;-59
2023/05/25 18:25:12;;;;;;;70.40;9.77;;;;;;;;;;4983276;28;20110;-58
2023/05/25 18:27:37;;;;;;;67.37;9.80;;;;;;;;;;4984037;28;20010;-58
2023/05/25 18:30:02;;;;;;;70.67;9.17;;;;;;;;;;4983491;28;20292;-59
2023/05/25 18:32:28;;;;;;;113.45;12.98;;;;;;;;;;4982467;28;20065;-57
2023/05/25 18:34:53;;;;;;;66.77;9.17;;;;;;;;;;4982906;28;20412;-60
2023/05/25 18:37:20;;;;;;;105.37;12.87;;;;;;;;;;4981930;28;20285;-57
2023/05/25 18:39:45;;;;;;;68.45;9.52;;;;;;;;;;4983406;28;20026;-57
2023/05/25 18:42:10;;;;;;;67.17;9.20;;;;;;;;;;4984675;28;20061;-57
2023/05/25 18:44:36;;;;;;;78.85;10.23;;;;;;;;;;4984946;28;20072;-57
2023/05/25 18:47:01;;;;;;;74.75;9.82;;;;;;;;;;4982365;28;20033;-56
2023/05/25 18:49:31;;;;;;;109.37;12.87;;;;;;;;;;4982129;28;20364;-58
2023/05/25 18:51:56;;;;;;;66.55;9.18;;;;;;;;;;4984234;28;20861;-59
2023/05/25 18:54:22;;;;;;;112.63;13.20;;;;;;;;;;4982939;28;20668;-57
2023/05/25 18:56:47;;;;;;;81.53;9.65;;;;;;;;;;4983260;28;20069;-61
2023/05/25 18:59:12;;;;;;;73.93;10.00;;;;;;;;;;4984439;28;20046;-60
2023/05/25 19:01:38;;;;;;;66.73;9.27;;;;;;;;;;4982994;28;20260;-58
2023/05/25 19:04:03;;;;;;;77.07;9.97;;;;;;;;;;4983824;28;20266;-60
2023/05/25 19:06:28;;;;;;;110.97;12.68;;;;;;;;;;4982656;28;20026;-60
2023/05/25 19:08:54;;;;;;;76.20;10.37;;;;;;;;;;4984744;28;20042;-57
2023/05/25 19:11:19;;;;;;;101.70;12.68;;;;;;;;;;4981093;28;20421;-62
2023/05/25 19:13:45;;;;;;;71.70;9.63;;;;;;;;;;4982734;28;20069;-59
2023/05/25 19:16:10;;;;;;;69.25;9.48;;;;;;;;;;4983828;28;20582;-59
2023/05/25 19:18:36;;;;;;;73.63;9.70;;;;;;;;;;4981703;28;20041;-58
2023/05/25 19:21:01;;;;;;;79.30;9.90;;;;;;;;;;4982197;28;20046;-60
2023/05/25 19:23:26;;;;;;;121.78;13.75;;;;;;;;;;4982997;28;20289;-59
2023/05/25 19:25:52;;;;;;;80.03;10.30;;;;;;;;;;4983323;28;20431;-60
2023/05/25 19:28:17;;;;;;;79.13;10.23;;;;;;;;;;4982193;28;20021;-60
2023/05/25 19:30:42;;;;;;;84.72;9.80;;;;;;;;;;4980870;28;20121;-60
2023/05/25 19:33:08;;;;;;;81.33;10.07;;;;;;;;;;4983342;28;20053;-61
2023/05/25 19:35:33;;;;;;;142.77;13.95;;;;;;;;;;4981633;28;20738;-59
2023/05/25 19:37:58;;;;;;;89.93;10.18;;;;;;;;;;4984849;28;20021;-59
2023/05/25 19:40:23;;;;;;;123.43;13.10;;;;;;;;;;4983794;28;20030;-59
2023/05/25 19:42:49;;;;;;;90.30;10.40;;;;;;;;;;4983491;28;20443;-57
2023/05/25 19:45:17;;;;;;;88.90;9.73;;;;;;;;;;4982157;28;20030;-60
2023/05/25 19:47:43;;;;;;;83.03;9.95;;;;;;;;;;4984921;28;20390;-58
2023/05/25 19:50:08;;;;;;;89.03;10.50;;;;;;;;;;4982931;28;20030;-59
2023/05/25 19:52:33;;;;;;;120.28;12.80;;;;;;;;;;4983355;28;20743;-60
2023/05/25 19:54:59;;;;;;;94.45;10.73;;;;;;;;;;4982775;28;20914;-57
2023/05/25 19:57:25;;;;;;;148.63;14.23;;;;;;;;;;4981205;28;20031;-58
2023/05/25 19:59:51;;;;;;;87.10;10.05;;;;;;;;;;4983590;28;20754;-58
2023/05/25 20:02:16;;;;;;;89.80;10.50;;;;;;;;;;4982514;28;20076;-57
2023/05/25 20:04:41;;;;;;;70.78;9.07;;;;;;;;;;4982971;28;20257;-59
2023/05/25 20:07:06;;;;;;;84.77;9.80;;;;;;;;;;4981631;28;20069;-59
2023/05/25 20:09:33;;;;;;;138.00;14.07;;;;;;;;;;4981607;28;20336;-57
2023/05/25 20:11:59;;;;;;;93.30;10.48;;;;;;;;;;4982496;28;20034;-59
2023/05/25 20:14:25;;;;;;;141.32;14.25;;;;;;;;;;4981791;28;20053;-57
2023/05/25 20:16:50;;;;;;;81.30;9.82;;;;;;;;;;4982293;28;20045;-59
2023/05/25 20:19:17;;;;;;;76.90;9.07;;;;;;;;;;4982060;28;20420;-56
2023/05/25 20:21:43;;;;;;;84.45;9.93;;;;;;;;;;4978181;28;20043;-59
2023/05/25 20:24:08;;;;;;;84.22;9.80;;;;;;;;;;4982131;28;20037;-59
2023/05/25 20:26:33;;;;;;;133.73;13.90;;;;;;;;;;4979634;28;20053;-58
2023/05/25 20:28:58;;;;;;;118.20;12.00;;;;;;;;;;4982040;28;20276;-59
2023/05/25 20:31:24;;;;;;;102.00;11.03;;;;;;;;;;4981576;28;20108;-59
2023/05/25 20:33:49;;;;;;;90.70;9.40;;;;;;;;;;4982953;28;20270;-56
2023/05/25 20:36:15;;;;;;;91.03;9.98;;;;;;;;;;4980794;28;20042;-59
2023/05/25 20:38:42;;;;;;;74.00;9.52;;;;;;;;;;4973431;28;20029;-58
2023/05/25 20:41:07;;;;;;;89.05;10.13;;;;;;;;;;4981468;28;20026;-58
2023/05/25 20:43:32;;;;;;;128.17;13.60;;;;;;;;;;4979393;28;20049;-56
2023/05/25 20:45:57;;;;;;;89.37;9.93;;;;;;;;;;4980937;28;20320;-57
2023/05/25 20:48:23;;;;;;;113.17;11.93;;;;;;;;;;4981229;28;20310;-56
2023/05/25 20:50:48;;;;;;;103.67;10.43;;;;;;;;;;4982134;28;20285;-60
2023/05/25 20:53:13;;;;;;;83.30;9.93;;;;;;;;;;4982383;28;20274;-59
2023/05/25 20:55:38;;;;;;;150.60;14.97;;;;;;;;;;4979072;28;20565;-58
2023/05/25 20:58:04;;;;;;;88.25;10.32;;;;;;;;;;4985413;28;20689;-58
2023/05/25 21:00:29;;;;;;;122.60;12.88;;;;;;;;;;4982797;28;20037;-58
2023/05/25 21:02:54;;;;;;;94.28;11.13;;;;;;;;;;4986145;28;20049;-59
2023/05/25 21:05:19;;;;;;;104.10;11.03;;;;;;;;;;4987265;28;20027;-58
2023/05/25 21:07:45;;;;;;;95.43;10.97;;;;;;;;;;4983392;28;20366;-59
2023/05/25 21:10:10;;;;;;;75.75;9.57;;;;;;;;;;4983826;28;20289;-58
2023/05/25 21:12:35;;;;;;;120.38;12.40;;;;;;;;;;4984412;28;20025;-56
2023/05/25 21:15:01;;;;;;;109.23;11.53;;;;;;;;;;4986294;28;20021;-57
2023/05/25 21:17:26;;;;;;;131.67;13.63;;;;;;;;;;4985209;28;20266;-58
2023/05/25 21:19:52;;;;;;;89.90;10.40;;;;;;;;;;4984466;28;20356;-59
2023/05/25 21:22:17;;;;;;;88.67;10.43;;;;;;;;;;4984871;28;20133;-59
2023/05/25 21:24:42;;;;;;;80.70;9.80;;;;;;;;;;4984276;28;20313;-58
2023/05/25 21:27:08;;;;;;;100.82;10.82;;;;;;;;;;4984240;28;20348;-55
2023/05/25 21:29:33;;;;;;;129.02;14.32;;;;;;;;;;4983914;28;20025;-60
2023/05/25 21:31:58;;;;;;;90.73;10.97;;;;;;;;;;4985437;28;20048;-59
2023/05/25 21:34:24;;;;;;;93.60;10.50;;;;;;;;;;4985747;28;20148;-56
2023/05/25 21:36:49;;;;;;;83.45;10.13;;;;;;;;;;4985303;28;20300;-59
2023/05/25 21:39:14;;;;;;;99.45;11.00;;;;;;;;;;4984448;28;20026;-59
2023/05/25 21:41:40;;;;;;;137.33;14.13;;;;;;;;;;4983488;28;20038;-60
2023/05/25 21:44:05;;;;;;;86.90;10.25;;;;;;;;;;4984981;28;20257;-58
2023/05/25 21:46:31;;;;;;;106.72;11.70;;;;;;;;;;4984472;28;20252;-59
2023/05/25 21:48:56;;;;;;;69.47;9.53;;;;;;;;;;4988115;28;20715;-57
